createdAt,value
2022-08-22T00:01:18.299Z,99981.34
2022-08-22T00:02:42.423Z,99988.56
2022-08-22T00:03:00.233Z,99985.56
2022-08-22T00:04:06.386Z,99980.53
2022-08-22T00:06:54.970Z,99975.66
2022-08-22T00:09:40.834Z,99978.91
2022-08-22T00:12:22.010Z,99980.59
2022-08-22T00:15:02.310Z,99982.66
2022-08-22T00:17:52.748Z,99969.66
2022-08-22T00:20:36.344Z,99975.00
2022-08-22T00:23:19.232Z,99974.19
2022-08-22T00:26:02.999Z,99969.28
2022-08-22T00:28:42.253Z,99962.81
2022-08-22T00:31:32.438Z,99967.22
2022-08-22T00:34:13.464Z,99964.38
2022-08-22T00:36:51.624Z,99963.16
2022-08-22T00:39:34.761Z,99961.91
2022-08-22T00:42:43.030Z,99961.53
2022-08-22T00:45:57.165Z,99965.66
2022-08-22T00:49:13.844Z,99971.41
2022-08-22T00:52:24.944Z,99959.63
2022-08-22T00:55:24.480Z,99964.91
2022-08-22T00:58:26.568Z,99961.28
2022-08-22T01:01:04.812Z,99961.28
2022-08-22T01:04:24.076Z,99970.22
2022-08-22T01:07:19.467Z,99980.81
2022-08-22T01:10:15.857Z,99982.06
2022-08-22T01:13:22.574Z,99983.28
2022-08-22T01:16:10.608Z,99991.84
2022-08-22T01:19:11.702Z,99988.16
2022-08-22T01:22:30.107Z,99991.47
2022-08-22T01:25:51.753Z,99994.31
2022-08-22T01:29:10.353Z,99986.22
2022-08-22T01:32:46.176Z,99988.69
2022-08-22T01:36:05.207Z,99987.09
2022-08-22T01:39:04.403Z,99998.47
2022-08-22T01:42:12.854Z,99994.84
2022-08-22T01:45:22.516Z,99998.09
2022-08-22T01:48:00.871Z,99996.88
2022-08-22T01:50:41.814Z,99995.63
2022-08-22T01:53:28.198Z,100002.56
2022-08-22T01:56:13.477Z,100001.78
2022-08-22T01:59:04.341Z,100005.41
2022-08-22T02:02:01.062Z,100008.25
2022-08-22T02:04:46.136Z,100003.81
2022-08-22T02:07:24.114Z,100010.72
2022-08-22T02:10:18.461Z,100017.25
2022-08-22T02:13:06.310Z,100019.72
2022-08-22T02:15:53.300Z,100018.13
2022-08-22T02:18:35.457Z,100031.56
2022-08-22T02:21:18.566Z,100032.81
2022-08-22T02:24:00.788Z,100034.41
2022-08-22T02:26:50.612Z,100035.28
2022-08-22T02:29:32.679Z,100036.50
2022-08-22T02:32:17.805Z,100043.44
2022-08-22T02:35:04.321Z,100044.69
2022-08-22T02:37:43.183Z,100048.78
2022-08-22T02:40:30.136Z,100048.84
2022-08-22T02:43:13.921Z,100049.72
2022-08-22T02:45:57.326Z,100044.91
2022-08-22T02:48:44.133Z,100053.88
2022-08-22T02:51:28.922Z,100059.22
2022-08-22T02:54:14.044Z,100069.78
2022-08-22T02:56:52.760Z,100067.75
2022-08-22T02:59:42.683Z,100061.22
2022-08-22T03:02:38.832Z,100064.53
2022-08-22T03:05:26.824Z,100065.75
2022-08-22T03:08:10.481Z,100074.31
2022-08-22T03:10:50.523Z,100069.84
2022-08-22T03:13:38.028Z,100069.84
2022-08-22T03:16:20.981Z,100072.69
2022-08-22T03:19:05.864Z,100073.91
2022-08-22T03:21:46.131Z,100077.22
2022-08-22T03:24:26.856Z,100077.22
2022-08-22T03:27:09.690Z,100089.84
2022-08-22T03:29:48.998Z,100082.53
2022-08-22T03:32:26.745Z,100086.63
2022-08-22T03:35:17.147Z,100091.50
2022-08-22T03:37:49.190Z,100088.28
2022-08-22T03:40:34.912Z,100091.13
2022-08-22T03:43:40.502Z,100102.97
2022-08-22T03:47:06.875Z,100108.66
2022-08-22T03:50:13.920Z,100109.09
2022-08-22T03:53:33.218Z,100115.25
2022-08-22T03:57:02.861Z,100119.31
2022-08-22T04:00:10.961Z,100120.09
2022-08-22T04:03:32.064Z,100125.00
2022-08-22T04:06:49.105Z,100123.78
2022-08-22T04:10:25.912Z,100123.34
2022-08-22T04:13:46.919Z,100129.47
2022-08-22T04:16:55.965Z,100133.94
2022-08-22T04:20:09.982Z,100129.41
2022-08-22T04:23:30.870Z,100130.59
2022-08-22T04:26:12.368Z,100141.13
2022-08-22T04:28:49.861Z,100136.16
2022-08-22T04:31:28.713Z,100134.06
2022-08-22T04:34:08.473Z,100138.91
2022-08-22T04:36:46.822Z,100137.25
2022-08-22T04:39:25.819Z,100141.25
2022-08-22T04:42:29.044Z,100148.94
2022-08-22T04:45:04.862Z,100155.00
2022-08-22T04:47:41.880Z,100159.03
2022-08-22T04:50:24.235Z,100161.00
2022-08-22T04:53:14.493Z,100152.41
2022-08-22T04:56:07.520Z,100158.47
2022-08-22T04:58:50.398Z,100154.75
2022-08-22T05:01:26.142Z,100157.97
2022-08-22T05:04:04.496Z,100154.25
2022-08-22T05:06:55.368Z,100156.59
2022-08-22T05:09:32.863Z,100160.22
2022-08-22T05:12:15.117Z,100156.84
2022-08-22T05:14:54.409Z,100152.69
2022-08-22T05:17:30.973Z,100165.28
2022-08-22T05:20:08.990Z,100173.75
2022-08-22T05:22:48.156Z,100174.47
2022-08-22T05:25:24.204Z,100174.44
2022-08-22T05:28:09.206Z,100170.28
2022-08-22T05:30:42.840Z,100178.75
2022-08-22T05:33:24.873Z,100183.94
2022-08-22T05:36:04.868Z,100185.47
2022-08-22T05:38:56.550Z,100187.81
2022-08-22T05:41:36.060Z,100184.50
2022-08-22T05:44:21.149Z,100193.78
2022-08-22T05:47:02.377Z,100185.59
2022-08-22T05:49:43.748Z,100192.09
2022-08-22T05:52:30.564Z,100204.25
2022-08-22T05:55:15.759Z,100195.25
2022-08-22T05:57:53.245Z,100203.34
2022-08-22T06:00:33.430Z,100211.03
2022-08-22T06:03:20.317Z,100208.97
2022-08-22T06:05:57.676Z,100212.66
2022-08-22T06:08:35.518Z,100216.66
2022-08-22T06:11:15.116Z,100223.09
2022-08-22T06:13:55.651Z,100214.03
2022-08-22T06:16:47.410Z,100219.22
2022-08-22T06:19:22.884Z,100217.91
2022-08-22T06:21:58.106Z,100216.59
2022-08-22T06:24:31.238Z,100216.50
2022-08-22T06:27:11.738Z,100229.03
2022-08-22T06:33:00.139Z,100215.69
2022-08-22T06:35:56.622Z,100229.81
2022-08-22T06:38:34.530Z,100223.97
2022-08-22T06:41:11.345Z,100226.28
2022-08-22T06:43:46.827Z,100224.94
2022-08-22T06:46:21.665Z,100232.63
2022-08-22T06:48:57.898Z,100232.13
2022-08-22T06:51:33.489Z,100229.22
2022-08-22T06:54:09.145Z,100230.72
2022-08-22T06:56:48.004Z,100236.69
2022-08-22T06:59:24.401Z,100239.03
2022-08-22T07:02:01.476Z,100240.91
2022-08-22T07:04:34.871Z,100233.41
2022-08-22T07:07:05.982Z,100233.69
2022-08-22T07:09:41.004Z,100229.06
2022-08-22T07:12:21.644Z,100226.03
2022-08-22T07:14:57.862Z,100228.72
2022-08-22T07:17:40.151Z,100235.50
2022-08-22T07:20:30.111Z,100232.00
2022-08-22T07:23:05.899Z,100237.50
2022-08-22T07:26:01.545Z,100241.00
2022-08-22T07:28:51.449Z,100235.06
2022-08-22T07:31:40.645Z,100230.47
2022-08-22T07:34:39.453Z,100239.66
2022-08-22T07:37:25.974Z,100230.50
2022-08-22T07:40:11.738Z,100236.47
2022-08-22T07:42:53.689Z,100229.75
2022-08-22T07:45:38.504Z,100238.59
2022-08-22T07:48:28.967Z,100236.41
2022-08-22T07:51:13.037Z,100238.84
2022-08-22T07:53:51.381Z,100239.22
2022-08-22T07:56:31.098Z,100233.38
2022-08-22T07:59:13.067Z,100231.22
2022-08-22T08:01:51.303Z,100238.00
2022-08-22T08:04:30.411Z,100235.41
2022-08-22T08:07:05.701Z,100233.22
2022-08-22T08:09:46.111Z,100242.88
2022-08-22T08:12:23.500Z,100232.91
2022-08-22T08:14:57.899Z,100231.06
2022-08-22T08:17:34.033Z,100240.69
2022-08-22T08:20:12.391Z,100239.00
2022-08-22T08:22:48.901Z,100238.91
2022-08-22T08:25:28.907Z,100243.28
2022-08-22T08:28:19.250Z,100244.75
2022-08-22T08:31:02.774Z,100238.91
2022-08-22T08:33:39.310Z,100232.72
2022-08-22T08:36:28.074Z,100231.81
2022-08-22T08:39:13.256Z,100232.16
2022-08-22T08:42:19.439Z,100228.84
2022-08-22T08:45:35.387Z,100230.78
2022-08-22T08:48:38.603Z,100220.81
2022-08-22T08:51:39.123Z,100213.72
2022-08-22T08:54:56.662Z,100215.66
2022-08-22T08:57:59.366Z,100216.44
2022-08-22T09:00:57.692Z,100211.06
2022-08-22T09:04:16.354Z,100219.19
2022-08-22T09:07:37.669Z,100213.81
2022-08-22T09:11:19.314Z,100211.28
2022-08-22T09:14:31.415Z,100214.06
2022-08-22T09:17:41.220Z,100205.34
2022-08-22T09:20:50.426Z,100201.56
2022-08-22T09:24:21.385Z,100197.56
2022-08-22T09:27:00.792Z,100205.69
2022-08-22T09:29:54.643Z,100200.31
2022-08-22T09:32:50.982Z,100192.50
2022-08-22T09:35:41.283Z,100186.78
2022-08-22T09:38:47.949Z,100194.94
2022-08-22T09:41:40.569Z,100205.91
2022-08-22T09:44:34.824Z,100212.00
2022-08-22T09:47:32.685Z,100203.75
2022-08-22T09:50:17.176Z,100191.81
2022-08-22T09:53:13.454Z,100199.50
2022-08-22T09:55:58.130Z,100191.69
2022-08-22T09:58:45.662Z,100196.16
2022-08-22T10:01:33.012Z,100192.47
2022-08-22T10:04:49.727Z,100195.81
2022-08-22T10:07:58.229Z,100195.81
2022-08-22T10:10:55.016Z,100190.53
2022-08-22T10:13:44.298Z,100199.16
2022-08-22T10:16:38.268Z,100196.72
2022-08-22T10:19:29.010Z,100193.84
2022-08-22T10:22:48.056Z,100189.41
2022-08-22T10:25:41.684Z,100189.84
2022-08-22T10:28:35.543Z,100196.41
2022-08-22T10:31:32.512Z,100190.31
2022-08-22T10:34:20.085Z,100193.53
2022-08-22T10:37:11.698Z,100188.25
2022-08-22T10:40:00.433Z,100191.94
2022-08-22T10:42:46.675Z,100187.00
2022-08-22T10:45:36.312Z,100188.72
2022-08-22T10:48:47.807Z,100194.56
2022-08-22T10:51:35.732Z,100185.63
2022-08-22T10:54:31.219Z,100199.97
2022-08-22T10:57:36.343Z,100194.69
2022-08-22T11:00:22.593Z,100194.34
2022-08-22T11:03:21.790Z,100194.81
2022-08-22T11:06:00.730Z,100198.56
2022-08-22T11:09:04.465Z,100195.72
2022-08-22T11:11:49.686Z,100196.16
2022-08-22T11:15:10.825Z,100201.56
2022-08-22T11:18:23.264Z,100195.47
2022-08-22T11:21:09.172Z,100195.47
2022-08-22T11:24:04.179Z,100199.13
2022-08-22T11:26:47.854Z,100205.34
2022-08-22T11:29:47.753Z,100198.91
2022-08-22T11:32:40.606Z,100205.91
2022-08-22T11:35:26.474Z,100210.06
2022-08-22T11:38:11.087Z,100204.31
2022-08-22T11:40:59.517Z,100211.31
2022-08-22T11:43:55.502Z,100211.31
2022-08-22T11:46:35.028Z,100213.34
2022-08-22T11:49:43.939Z,100208.09
2022-08-22T11:52:56.882Z,100210.63
2022-08-22T11:55:36.991Z,100207.41
2022-08-22T11:58:28.926Z,100202.16
2022-08-22T12:01:11.733Z,100197.66
2022-08-22T12:04:10.120Z,100208.34
2022-08-22T12:07:05.470Z,100208.91
2022-08-22T12:09:56.172Z,100218.09
2022-08-22T12:12:56.161Z,100210.41
2022-08-22T12:15:36.414Z,100207.19
2022-08-22T12:18:52.894Z,100211.31
2022-08-22T12:22:04.476Z,100208.91
2022-08-22T12:25:02.968Z,100211.06
2022-08-22T12:28:00.800Z,100208.63
2022-08-22T12:30:41.178Z,100209.19
2022-08-22T12:33:55.539Z,100219.97
2022-08-22T12:37:05.120Z,100219.63
2022-08-22T12:40:27.345Z,100220.41
2022-08-22T12:43:49.665Z,100216.41
2022-08-22T12:46:49.273Z,100213.53
2022-08-22T12:49:52.361Z,100210.78
2022-08-22T12:53:07.010Z,100223.97
2022-08-22T12:56:05.432Z,100228.09
2022-08-22T12:59:09.624Z,100217.53
2022-08-22T13:01:50.393Z,100222.13
2022-08-22T13:04:33.072Z,100224.28
2022-08-22T13:07:31.274Z,100221.41
2022-08-22T13:10:28.920Z,100225.19
2022-08-22T13:13:03.894Z,100225.75
2022-08-22T13:15:58.647Z,100222.22
2022-08-22T13:18:53.550Z,100218.16
2022-08-22T13:21:34.883Z,100226.75
2022-08-22T13:24:16.829Z,100223.88
2022-08-22T13:27:07.935Z,100221.50
2022-08-22T13:29:53.195Z,100230.16
2022-08-22T13:32:44.267Z,100223.28
2022-08-22T13:35:27.855Z,100231.53
2022-08-22T13:38:12.238Z,100233.22
2022-08-22T13:40:53.466Z,100238.13
2022-08-22T13:43:28.955Z,100229.56
2022-08-22T13:46:06.076Z,100227.16
2022-08-22T13:49:04.865Z,100225.09
2022-08-22T13:51:50.362Z,100232.53
2022-08-22T13:54:55.116Z,100222.78
2022-08-22T13:57:36.051Z,100221.66
2022-08-22T14:00:33.686Z,100219.69
2022-08-22T14:03:17.680Z,100221.41
2022-08-22T14:06:06.173Z,100221.47
2022-08-22T14:08:51.556Z,100225.25
2022-08-22T14:11:35.224Z,100238.72
2022-08-22T14:14:10.191Z,100232.22
2022-08-22T14:16:51.567Z,100228.53
2022-08-22T14:19:53.134Z,100236.81
2022-08-22T14:22:34.861Z,100238.47
2022-08-22T14:25:11.332Z,100242.59
2022-08-22T14:27:58.244Z,100244.19
2022-08-22T14:30:35.424Z,100247.53
2022-08-22T14:33:16.834Z,100248.78
2022-08-22T14:35:55.917Z,100240.19
2022-08-22T14:38:32.475Z,100246.38
2022-08-22T14:41:08.075Z,100237.78
2022-08-22T14:43:59.319Z,100240.66
2022-08-22T14:46:38.120Z,100248.88
2022-08-22T14:49:50.673Z,100243.25
2022-08-22T14:52:51.111Z,100244.56
2022-08-22T14:55:28.260Z,100252.78
2022-08-22T14:58:07.470Z,100245.47
2022-08-22T15:00:44.883Z,100250.38
2022-08-22T15:03:35.045Z,100245.09
2022-08-22T15:06:14.055Z,100250.03
2022-08-22T15:08:53.401Z,100243.94
2022-08-22T15:11:32.035Z,100238.69
2022-08-22T15:14:13.430Z,100246.91
2022-08-22T15:16:57.521Z,100247.00
2022-08-22T15:19:37.363Z,100247.44
2022-08-22T15:22:19.531Z,100248.34
2022-08-22T15:25:00.924Z,100259.78
2022-08-22T15:27:36.723Z,100257.34
2022-08-22T15:30:16.898Z,100248.44
2022-08-22T15:32:52.188Z,100253.81
2022-08-22T15:35:39.029Z,100259.53
2022-08-22T15:38:28.226Z,100259.94
2022-08-22T15:41:47.290Z,100266.22
2022-08-22T15:44:34.341Z,100265.41
2022-08-22T15:47:34.263Z,100275.69
2022-08-22T15:50:23.693Z,100264.69
2022-08-22T15:53:24.472Z,100269.25
2022-08-22T15:56:35.237Z,100263.97
2022-08-22T15:59:52.700Z,100266.47
2022-08-22T16:02:35.354Z,100266.91
2022-08-22T16:05:29.800Z,100272.25
2022-08-22T16:08:09.406Z,100262.53
2022-08-22T16:10:45.547Z,100269.94
2022-08-22T16:13:43.262Z,100266.25
2022-08-22T16:16:56.756Z,100265.09
2022-08-22T16:19:30.111Z,100261.88
2022-08-22T16:22:22.369Z,100266.81
2022-08-22T16:25:11.545Z,100272.53
2022-08-22T16:28:00.522Z,100269.28
2022-08-22T16:30:41.707Z,100278.31
2022-08-22T16:33:18.331Z,100272.69
2022-08-22T16:36:55.332Z,100284.63
2022-08-22T16:39:42.929Z,100291.69
2022-08-22T16:42:39.236Z,100286.44
2022-08-22T16:45:22.642Z,100292.94
2022-08-22T16:47:58.846Z,100295.00
2022-08-22T16:50:41.387Z,100298.63
2022-08-22T16:53:50.438Z,100295.00
2022-08-22T16:56:32.421Z,100294.63
2022-08-22T16:59:38.608Z,100290.16
2022-08-22T17:02:46.381Z,100297.56
2022-08-22T17:05:54.127Z,100298.53
2022-08-22T17:08:51.740Z,100299.78
2022-08-22T17:11:41.272Z,100307.09
2022-08-22T17:14:38.223Z,100308.34
2022-08-22T17:17:33.151Z,100315.28
2022-08-22T17:20:24.303Z,100312.44
2022-08-22T17:23:09.770Z,100314.91
2022-08-22T17:26:00.358Z,100310.44
2022-08-22T17:28:44.635Z,100312.94
2022-08-22T17:31:27.378Z,100321.59
2022-08-22T17:34:26.541Z,100326.03
2022-08-22T17:37:12.670Z,100325.69
2022-08-22T17:40:11.303Z,100333.88
2022-08-22T17:43:23.440Z,100327.81
2022-08-22T17:46:17.885Z,100342.44
2022-08-22T17:48:58.071Z,100341.19
2022-08-22T17:51:40.395Z,100342.81
2022-08-22T17:54:35.906Z,100341.19
2022-08-22T17:57:16.143Z,100338.34
2022-08-22T17:59:58.261Z,100346.09
2022-08-22T18:02:37.393Z,100338.75
2022-08-22T18:05:20.298Z,100338.75
2022-08-22T18:08:06.526Z,100341.63
2022-08-22T18:10:48.856Z,100347.34
2022-08-22T18:13:38.778Z,100347.34
2022-08-22T18:16:23.177Z,100348.56
2022-08-22T18:19:05.433Z,100345.72
2022-08-22T18:21:45.812Z,100347.00
2022-08-22T18:24:32.994Z,100345.47
2022-08-22T18:27:34.118Z,100342.22
2022-08-22T18:30:20.499Z,100350.78
2022-08-22T18:33:04.116Z,100347.94
2022-08-22T18:35:48.620Z,100348.72
2022-08-22T18:38:53.774Z,100356.88
2022-08-22T18:41:35.026Z,100351.22
2022-08-22T18:44:15.092Z,100358.19
2022-08-22T18:47:02.367Z,100362.72
2022-08-22T18:49:48.758Z,100362.72
2022-08-22T18:52:36.795Z,100362.72
2022-08-22T18:55:30.029Z,100357.81
2022-08-22T18:58:43.559Z,100361.09
2022-08-22T19:01:44.123Z,100356.63
2022-08-22T19:05:01.163Z,100348.97
2022-08-22T19:08:23.658Z,100342.88
2022-08-22T19:11:18.531Z,100346.19
2022-08-22T19:14:10.877Z,100348.22
2022-08-22T19:17:15.857Z,100354.38
2022-08-22T19:20:20.755Z,100348.28
2022-08-22T19:22:54.286Z,100354.44
2022-08-22T19:25:29.848Z,100347.94
2022-08-22T19:28:40.081Z,100354.09
2022-08-22T19:31:45.350Z,100353.25
2022-08-22T19:34:41.064Z,100346.75
2022-08-22T19:37:33.523Z,100350.84
2022-08-22T19:40:08.491Z,100348.44
2022-08-22T19:42:43.958Z,100343.53
2022-08-22T19:45:30.278Z,100347.56
2022-08-22T19:48:13.636Z,100347.56
2022-08-22T19:50:47.293Z,100342.66
2022-08-22T19:53:42.729Z,100347.56
2022-08-22T19:56:34.547Z,100351.22
2022-08-22T19:59:33.865Z,100349.16
2022-08-22T20:02:27.861Z,100354.88
2022-08-22T20:05:28.220Z,100354.09
2022-08-22T20:08:39.865Z,100355.69
2022-08-22T20:11:40.418Z,100351.22
2022-08-22T20:14:30.816Z,100353.25
2022-08-22T20:17:13.218Z,100356.56
2022-08-22T20:22:52.949Z,100352.53
2022-08-22T20:25:43.006Z,100349.25
2022-08-22T20:28:44.419Z,100350.47
2022-08-22T20:31:26.003Z,100346.00
2022-08-22T20:34:08.735Z,100344.41
2022-08-22T20:36:43.866Z,100357.44
2022-08-22T20:39:27.867Z,100338.69
2022-08-22T20:42:12.240Z,100346.00
2022-08-22T20:44:53.227Z,100343.59
2022-08-22T20:47:32.313Z,100347.69
2022-08-22T20:50:14.753Z,100356.25
2022-08-22T20:52:51.920Z,100357.09
2022-08-22T20:55:31.647Z,100364.81
2022-08-22T20:58:09.483Z,100366.88
2022-08-22T21:00:51.456Z,100356.72
2022-08-22T21:03:42.789Z,100357.13
2022-08-22T21:06:18.956Z,100349.81
2022-08-22T21:09:11.666Z,100354.69
2022-08-22T21:11:51.463Z,100355.13
2022-08-22T21:14:28.114Z,100351.47
2022-08-22T21:16:59.113Z,100357.16
2022-08-22T21:19:31.795Z,100349.44
2022-08-22T21:22:15.694Z,100346.56
2022-08-22T21:24:47.303Z,100352.28
2022-08-22T21:27:29.289Z,100356.75
2022-08-22T21:30:05.232Z,100353.06
2022-08-22T21:32:41.064Z,100353.53
2022-08-22T21:35:28.165Z,100353.16
2022-08-22T21:38:01.051Z,100351.16
2022-08-22T21:40:38.948Z,100341.38
2022-08-22T21:43:13.557Z,100342.19
2022-08-22T21:45:47.726Z,100336.47
2022-08-22T21:48:37.151Z,100340.13
2022-08-22T21:51:42.720Z,100341.38
2022-08-22T21:54:43.148Z,100338.97
2022-08-22T21:57:38.346Z,100330.03
2022-08-22T22:00:32.139Z,100333.31
2022-08-22T22:03:09.924Z,100321.09
2022-08-22T22:05:41.543Z,100325.63
2022-08-22T22:08:13.301Z,100328.47
2022-08-22T22:10:47.551Z,100325.63
2022-08-22T22:13:21.792Z,100326.09
2022-08-22T22:15:55.633Z,100320.78
2022-08-22T22:18:32.030Z,100309.03
2022-08-22T22:21:04.512Z,100316.78
2022-08-22T22:23:35.763Z,100303.75
2022-08-22T22:26:08.538Z,100314.38
2022-08-22T22:28:43.522Z,100313.56
2022-08-22T22:31:13.691Z,100310.69
2022-08-22T22:33:52.113Z,100307.84
2022-08-22T22:36:27.478Z,100311.94
2022-08-22T22:38:58.929Z,100303.38
2022-08-22T22:41:29.777Z,100300.19
2022-08-22T22:44:00.914Z,100297.34
2022-08-22T22:46:32.147Z,100298.94
2022-08-22T22:49:04.813Z,100296.88
2022-08-22T22:51:35.295Z,100280.22
2022-08-22T22:54:06.051Z,100295.28
2022-08-22T22:56:41.710Z,100289.56
2022-08-22T22:59:12.991Z,100291.63
2022-08-22T23:02:08.417Z,100288.81
2022-08-22T23:04:45.208Z,100303.06
2022-08-22T23:07:19.027Z,100300.66
2022-08-22T23:09:49.828Z,100292.56
2022-08-22T23:12:20.546Z,100300.75
2022-08-22T23:14:52.764Z,100298.69
2022-08-22T23:17:23.647Z,100301.97
2022-08-22T23:19:55.987Z,100299.13
2022-08-22T23:22:26.824Z,100297.50
2022-08-22T23:24:57.611Z,100297.13
2022-08-22T23:27:28.556Z,100298.41
2022-08-22T23:29:59.657Z,100293.94
2022-08-22T23:32:30.733Z,100297.22
2022-08-22T23:35:03.482Z,100295.59
2022-08-22T23:37:34.125Z,100300.97
2022-08-22T23:40:07.126Z,100294.44
2022-08-22T23:42:37.947Z,100300.56
2022-08-22T23:45:09.305Z,100297.31
2022-08-22T23:47:42.635Z,100288.84
2022-08-22T23:50:15.557Z,100294.16
2022-08-22T23:52:46.734Z,100299.50
2022-08-22T23:55:16.664Z,100294.22
2022-08-22T23:57:47.298Z,100298.31
